createdAt,value
2019-03-04T00:01:53.093Z,23.62
2019-03-04T00:04:21.361Z,20.68
2019-03-04T00:06:49.624Z,24.65
2019-03-04T00:09:17.872Z,27.80
2019-03-04T00:11:46.109Z,23.52
2019-03-04T00:14:14.362Z,24.95
2019-03-04T00:16:42.625Z,24.10
2019-03-04T00:19:10.901Z,24.00
2019-03-04T00:21:39.152Z,25.45
2019-03-04T00:24:07.389Z,22.58
2019-03-04T00:26:35.643Z,22.82
2019-03-04T00:29:03.885Z,24.95
2019-03-04T00:31:32.156Z,24.67
2019-03-04T00:34:00.416Z,22.85
2019-03-04T00:36:28.664Z,24.52
2019-03-04T00:38:56.924Z,23.90
2019-03-04T00:41:25.188Z,24.70
2019-03-04T00:43:53.446Z,23.73
2019-03-04T00:46:21.694Z,21.45
2019-03-04T00:48:49.965Z,22.07
2019-03-04T00:51:18.210Z,19.07
2019-03-04T00:53:46.473Z,23.00
2019-03-04T00:56:14.731Z,22.42
2019-03-04T00:58:43.001Z,20.25
2019-03-04T01:01:11.243Z,22.90
2019-03-04T01:03:39.517Z,23.65
2019-03-04T01:06:07.772Z,21.23
2019-03-04T01:08:36.015Z,18.42
2019-03-04T01:11:04.292Z,23.38
2019-03-04T01:13:32.548Z,21.12
2019-03-04T01:16:00.810Z,21.80
2019-03-04T01:18:29.067Z,24.12
2019-03-04T01:20:57.342Z,20.08
2019-03-04T01:23:25.602Z,21.20
2019-03-04T01:25:53.846Z,22.73
2019-03-04T01:28:22.166Z,21.60
2019-03-04T01:30:50.418Z,20.85
2019-03-04T01:33:18.693Z,18.92
2019-03-04T01:35:47.018Z,22.82
2019-03-04T01:38:15.285Z,23.67
2019-03-04T01:40:43.541Z,22.22
2019-03-04T01:43:11.786Z,24.27
2019-03-04T01:45:40.049Z,20.90
2019-03-04T01:48:08.294Z,20.45
2019-03-04T01:50:36.561Z,27.17
2019-03-04T01:53:04.808Z,23.20
2019-03-04T01:55:33.072Z,22.60
2019-03-04T01:58:01.336Z,20.20
2019-03-04T02:00:29.582Z,22.32
2019-03-04T02:02:57.830Z,19.05
2019-03-04T02:05:26.354Z,26.70
2019-03-04T02:07:54.601Z,21.75
2019-03-04T02:10:22.932Z,22.02
2019-03-04T02:12:51.178Z,22.07
2019-03-04T02:15:21.096Z,20.27
2019-03-04T02:17:49.346Z,17.70
2019-03-04T02:20:18.235Z,23.32
2019-03-04T02:22:46.662Z,15.85
2019-03-04T02:25:19.169Z,15.93
2019-03-04T02:28:11.166Z,16.73
2019-03-04T02:30:39.414Z,19.80
2019-03-04T02:33:07.740Z,17.57
2019-03-04T02:35:35.999Z,13.93
2019-03-04T02:38:04.265Z,16.45
2019-03-04T02:40:32.585Z,18.67
2019-03-04T02:43:00.832Z,14.70
2019-03-04T02:45:29.111Z,17.20
2019-03-04T02:47:57.373Z,15.68
2019-03-04T02:50:25.638Z,16.40
2019-03-04T02:52:53.886Z,14.50
2019-03-04T02:55:22.138Z,17.17
2019-03-04T02:57:50.396Z,15.60
2019-03-04T03:00:19.298Z,13.68
2019-03-04T03:02:47.615Z,12.70
2019-03-04T03:05:15.889Z,13.83
2019-03-04T03:07:44.205Z,12.47
2019-03-04T03:10:33.485Z,12.98
2019-03-04T03:13:01.738Z,12.68
2019-03-04T03:15:29.992Z,12.58
2019-03-04T03:17:58.234Z,12.03
2019-03-04T03:20:26.497Z,13.75
2019-03-04T03:22:54.773Z,15.95
2019-03-04T03:25:23.114Z,12.95
2019-03-04T03:27:51.454Z,14.65
2019-03-04T03:30:22.998Z,10.23
2019-03-04T03:32:51.315Z,9.28
2019-03-04T03:35:19.562Z,11.45
2019-03-04T03:37:47.802Z,9.30
2019-03-04T03:40:19.993Z,11.78
2019-03-04T03:42:48.315Z,11.35
2019-03-04T03:45:16.689Z,11.05
2019-03-04T03:47:45.033Z,11.08
2019-03-04T03:50:15.111Z,9.63
2019-03-04T03:52:43.365Z,12.82
2019-03-04T03:55:12.842Z,11.48
2019-03-04T03:57:41.109Z,8.85
2019-03-04T04:00:17.046Z,10.40
2019-03-04T04:02:45.311Z,11.95
2019-03-04T04:05:13.632Z,8.45
2019-03-04T04:07:41.891Z,11.95
2019-03-04T04:10:13.469Z,10.98
2019-03-04T04:12:41.717Z,10.43
2019-03-04T04:15:11.590Z,10.40
2019-03-04T04:17:39.852Z,8.78
2019-03-04T04:20:09.413Z,10.20
2019-03-04T04:22:37.694Z,8.05
2019-03-04T04:25:07.337Z,9.45
2019-03-04T04:27:35.618Z,10.82
2019-03-04T04:30:07.037Z,11.10
2019-03-04T04:32:35.289Z,9.50
2019-03-04T04:35:03.725Z,10.78
2019-03-04T04:37:31.973Z,8.00
2019-03-04T04:40:00.335Z,8.40
2019-03-04T04:42:28.661Z,8.80
2019-03-04T04:44:56.925Z,7.87
2019-03-04T04:47:25.245Z,9.00
2019-03-04T04:49:53.501Z,9.43
2019-03-04T04:52:23.295Z,7.58
2019-03-04T04:54:51.765Z,8.78
2019-03-04T04:57:20.019Z,9.13
2019-03-04T04:59:48.294Z,10.55
2019-03-04T05:02:16.602Z,8.53
2019-03-04T05:04:44.841Z,8.00
2019-03-04T05:07:13.106Z,8.20
2019-03-04T05:09:41.353Z,8.58
2019-03-04T05:12:09.608Z,6.58
2019-03-04T05:14:37.869Z,9.13
2019-03-04T05:17:06.141Z,9.45
2019-03-04T05:19:34.369Z,9.25
2019-03-04T05:22:02.637Z,8.80
2019-03-04T05:24:30.882Z,7.97
2019-03-04T05:26:59.385Z,8.05
2019-03-04T05:29:27.656Z,7.62
2019-03-04T05:31:55.890Z,6.95
2019-03-04T05:34:24.157Z,8.35
2019-03-04T05:36:52.420Z,9.05
2019-03-04T05:39:20.730Z,7.12
2019-03-04T05:41:48.978Z,8.40
2019-03-04T05:44:17.240Z,8.68
2019-03-04T05:46:45.477Z,9.03
2019-03-04T05:49:13.720Z,7.47
2019-03-04T05:51:41.986Z,7.25
2019-03-04T05:54:10.245Z,8.33
2019-03-04T05:56:38.490Z,6.90
2019-03-04T05:59:06.765Z,6.83
2019-03-04T06:01:35.027Z,6.33
2019-03-04T06:04:05.512Z,10.08
2019-03-04T06:06:41.478Z,5.87
2019-03-04T06:09:11.485Z,7.92
2019-03-04T06:11:39.726Z,7.78
2019-03-04T06:14:09.015Z,6.72
2019-03-04T06:16:46.835Z,5.55
2019-03-04T06:19:07.233Z,5.35
2019-03-04T06:21:35.521Z,7.10
2019-03-04T06:24:03.802Z,6.45
2019-03-04T06:26:32.034Z,5.17
2019-03-04T06:29:00.286Z,8.58
2019-03-04T06:31:28.544Z,6.10
2019-03-04T06:33:56.792Z,5.45
2019-03-04T06:36:25.064Z,6.08
2019-03-04T06:38:53.298Z,4.70
2019-03-04T06:41:21.590Z,3.98
2019-03-04T06:43:49.881Z,5.72
2019-03-04T06:46:18.149Z,4.85
2019-03-04T06:48:46.401Z,5.85
2019-03-04T06:51:20.590Z,5.97
2019-03-04T06:54:07.206Z,5.58
2019-03-04T06:56:50.857Z,4.78
2019-03-04T06:59:40.028Z,4.60
2019-03-04T07:02:11.537Z,5.00
2019-03-04T07:05:06.951Z,4.62
2019-03-04T07:07:35.189Z,4.58
2019-03-04T07:10:05.107Z,5.08
2019-03-04T07:12:33.417Z,3.70
2019-03-04T07:15:01.678Z,5.90
2019-03-04T07:17:29.918Z,4.75
2019-03-04T07:20:10.240Z,4.28
2019-03-04T07:22:38.466Z,5.33
2019-03-04T07:25:08.762Z,7.85
2019-03-04T07:27:37.003Z,4.25
2019-03-04T07:30:11.083Z,5.30
2019-03-04T07:32:39.330Z,5.30
2019-03-04T07:35:08.905Z,4.62
2019-03-04T07:37:37.155Z,4.55
2019-03-04T07:40:08.675Z,4.55
2019-03-04T07:42:36.937Z,8.00
2019-03-04T07:45:07.103Z,5.05
2019-03-04T07:47:35.345Z,4.40
2019-03-04T07:50:03.598Z,4.25
2019-03-04T07:52:31.854Z,5.50
2019-03-04T07:55:00.160Z,5.00
2019-03-04T07:57:28.697Z,4.75
2019-03-04T07:59:56.942Z,5.00
2019-03-04T08:02:25.205Z,4.35
2019-03-04T08:04:53.474Z,3.35
2019-03-04T08:07:36.322Z,3.98
2019-03-04T08:10:16.797Z,4.30
2019-03-04T08:13:09.057Z,5.05
2019-03-04T08:15:38.633Z,4.20
2019-03-04T08:18:06.897Z,6.47
2019-03-04T08:20:35.149Z,4.78
2019-03-04T08:23:03.394Z,4.30
2019-03-04T08:25:31.646Z,6.35
2019-03-04T08:27:59.892Z,4.40
2019-03-04T08:30:28.151Z,4.62
2019-03-04T08:32:56.390Z,5.00
2019-03-04T08:35:24.651Z,3.33
2019-03-04T08:37:52.889Z,4.12
2019-03-04T08:40:21.203Z,4.58
2019-03-04T08:42:49.465Z,5.60
2019-03-04T08:45:19.367Z,5.35
2019-03-04T08:47:47.684Z,4.70
2019-03-04T08:50:17.386Z,5.35
2019-03-04T08:52:45.622Z,3.15
2019-03-04T08:55:15.622Z,4.95
2019-03-04T08:57:44.656Z,23.87
2019-03-04T09:00:21.402Z,7.10
2019-03-04T09:02:49.661Z,2.60
2019-03-04T09:05:17.887Z,3.45
2019-03-04T09:07:46.167Z,4.62
2019-03-04T09:10:28.845Z,2.70
2019-03-04T09:12:57.103Z,1.90
2019-03-04T09:15:25.353Z,3.42
2019-03-04T09:17:53.580Z,2.05
2019-03-04T09:20:22.842Z,1.55
2019-03-04T09:22:51.080Z,2.37
2019-03-04T09:26:03.028Z,3.50
2019-03-04T09:28:31.272Z,5.85
2019-03-04T09:30:59.534Z,2.40
2019-03-04T09:33:27.754Z,2.83
2019-03-04T09:35:56.033Z,2.05
2019-03-04T09:38:24.337Z,3.08
2019-03-04T09:40:52.574Z,2.50
2019-03-04T09:43:20.828Z,3.12
2019-03-04T09:45:49.088Z,2.00
2019-03-04T09:48:17.349Z,2.10
2019-03-04T09:50:45.575Z,3.52
2019-03-04T09:53:13.822Z,3.08
2019-03-04T09:55:42.077Z,4.58
2019-03-04T09:58:10.337Z,2.65
2019-03-04T10:00:46.904Z,1.90
2019-03-04T10:03:45.359Z,2.98
2019-03-04T10:06:25.770Z,3.30
2019-03-04T10:09:16.718Z,2.02
2019-03-04T10:11:51.061Z,4.97
2019-03-04T10:14:55.951Z,3.85
2019-03-04T10:17:46.619Z,3.10
2019-03-04T10:20:40.978Z,4.85
2019-03-04T10:23:52.558Z,4.78
2019-03-04T10:27:06.913Z,5.00
2019-03-04T10:30:10.979Z,3.77
2019-03-04T10:33:06.231Z,3.72
2019-03-04T10:35:43.711Z,6.00
2019-03-04T10:38:43.014Z,6.08
2019-03-04T10:41:34.355Z,3.98
2019-03-04T10:44:21.213Z,6.53
2019-03-04T10:46:51.458Z,4.53
2019-03-04T10:49:19.693Z,6.00
2019-03-04T10:51:47.944Z,3.15
2019-03-04T10:54:16.208Z,3.27
2019-03-04T10:56:44.437Z,6.55
2019-03-04T10:59:12.701Z,3.85
2019-03-04T11:01:40.921Z,5.03
2019-03-04T11:04:09.169Z,5.53
2019-03-04T11:06:37.436Z,5.10
2019-03-04T11:09:14.231Z,5.20
2019-03-04T11:11:43.026Z,5.17
2019-03-04T11:14:11.280Z,6.40
2019-03-04T11:16:39.532Z,3.58
2019-03-04T11:19:07.800Z,4.33
2019-03-04T11:21:36.054Z,4.55
2019-03-04T11:24:04.776Z,4.37
2019-03-04T11:26:33.025Z,3.77
2019-03-04T11:29:01.270Z,4.50
2019-03-04T11:31:29.512Z,4.55
2019-03-04T11:33:57.761Z,6.33
2019-03-04T11:36:26.017Z,3.62
2019-03-04T11:38:57.550Z,3.47
2019-03-04T11:41:25.808Z,5.72
2019-03-04T11:43:54.043Z,7.15
2019-03-04T11:46:23.463Z,4.45
2019-03-04T11:48:51.773Z,1.65
2019-03-04T11:53:37.779Z,7.05
2019-03-04T11:56:06.037Z,3.42
2019-03-04T11:58:34.270Z,3.45
2019-03-04T12:01:04.147Z,1.90
2019-03-04T12:03:32.403Z,1.85
2019-03-04T12:06:00.634Z,2.37
2019-03-04T12:08:28.894Z,3.10
2019-03-04T12:10:57.143Z,1.15
2019-03-04T12:13:25.400Z,1.27
2019-03-04T12:15:53.648Z,2.45
2019-03-04T12:18:21.906Z,2.20
2019-03-04T12:20:50.134Z,1.52
2019-03-04T12:23:18.393Z,2.52
2019-03-04T12:25:46.630Z,2.45
2019-03-04T12:28:15.149Z,0.82
2019-03-04T12:30:43.681Z,1.40
2019-03-04T12:33:11.930Z,2.45
2019-03-04T12:35:40.185Z,1.32
2019-03-04T12:38:08.414Z,1.20
2019-03-04T12:40:36.667Z,1.90
2019-03-04T12:43:04.899Z,1.47
2019-03-04T12:45:34.658Z,2.70
2019-03-04T12:48:03.088Z,2.12
2019-03-04T12:50:33.937Z,2.60
2019-03-04T12:53:02.282Z,2.37
2019-03-04T12:55:30.525Z,3.67
2019-03-04T12:57:58.773Z,2.62
2019-03-04T13:00:30.770Z,2.70
2019-03-04T13:02:59.470Z,2.87
2019-03-04T13:05:27.728Z,3.72
2019-03-04T13:07:55.980Z,1.95
2019-03-04T13:10:24.545Z,1.82
2019-03-04T13:12:52.874Z,2.15
2019-03-04T13:15:35.043Z,3.08
2019-03-04T13:18:06.090Z,4.40
2019-03-04T13:20:34.412Z,3.22
2019-03-04T13:23:02.657Z,3.20
2019-03-04T13:25:30.913Z,2.08
2019-03-04T13:28:07.821Z,2.42
2019-03-04T13:30:34.122Z,2.85
2019-03-04T13:33:02.429Z,1.75
2019-03-04T13:35:58.583Z,3.90
2019-03-04T13:38:26.830Z,3.10
2019-03-04T13:40:55.157Z,1.92
2019-03-04T13:43:23.400Z,3.40
2019-03-04T13:45:55.462Z,3.42
2019-03-04T13:48:23.969Z,3.47
2019-03-04T13:50:52.238Z,2.42
2019-03-04T13:53:20.486Z,1.90
2019-03-04T13:55:48.902Z,3.77
2019-03-04T13:58:17.126Z,4.40
2019-03-04T14:00:45.391Z,2.75
2019-03-04T14:03:14.445Z,4.87
2019-03-04T14:05:42.669Z,2.98
2019-03-04T14:08:10.946Z,3.95
2019-03-04T14:10:44.632Z,1.85
2019-03-04T14:13:12.881Z,6.53
2019-03-04T14:15:43.254Z,5.53
2019-03-04T14:18:11.626Z,6.08
2019-03-04T14:20:39.846Z,5.03
2019-03-04T14:23:08.093Z,6.15
2019-03-04T14:25:36.346Z,6.30
2019-03-04T14:28:04.601Z,4.33
2019-03-04T14:30:32.861Z,4.58
2019-03-04T14:33:01.117Z,6.30
2019-03-04T14:35:29.385Z,5.15
2019-03-04T14:37:57.773Z,3.85
2019-03-04T14:40:26.023Z,4.55
2019-03-04T14:42:55.144Z,3.70
2019-03-04T14:45:25.674Z,2.95
2019-03-04T14:47:54.093Z,4.55
2019-03-04T14:50:22.407Z,5.30
2019-03-04T14:52:50.698Z,6.42
2019-03-04T14:55:26.454Z,4.28
2019-03-04T14:57:54.694Z,5.72
2019-03-04T15:00:35.793Z,6.62
2019-03-04T15:03:04.105Z,6.75
2019-03-04T15:05:32.339Z,6.40
2019-03-04T15:08:00.569Z,5.83
2019-03-04T15:10:28.824Z,4.37
2019-03-04T15:12:57.049Z,5.67
2019-03-04T15:15:34.959Z,9.68
2019-03-04T15:18:03.196Z,5.95
2019-03-04T15:20:33.452Z,4.42
2019-03-04T15:23:01.988Z,5.28
2019-03-04T15:25:37.431Z,6.83
2019-03-04T15:28:08.932Z,3.40
2019-03-04T15:30:37.183Z,7.33
2019-03-04T15:33:05.506Z,4.28
2019-03-04T15:35:33.846Z,5.92
2019-03-04T15:38:02.190Z,7.28
2019-03-04T15:40:30.504Z,5.20
2019-03-04T15:42:58.809Z,5.35
2019-03-04T15:45:27.205Z,9.60
2019-03-04T15:47:55.442Z,9.73
2019-03-04T15:50:23.877Z,7.10
2019-03-04T15:52:52.115Z,11.68
2019-03-04T15:55:20.363Z,7.72
2019-03-04T15:57:51.031Z,11.73
2019-03-04T16:00:19.064Z,10.23
2019-03-04T16:02:48.827Z,15.10
2019-03-04T16:05:17.377Z,9.08
2019-03-04T16:07:45.694Z,7.45
2019-03-04T16:10:25.833Z,6.22
2019-03-04T16:12:54.150Z,6.67
2019-03-04T16:15:22.405Z,8.20
2019-03-04T16:17:50.710Z,6.70
2019-03-04T16:20:20.372Z,7.72
2019-03-04T16:22:49.059Z,9.98
2019-03-04T16:25:17.386Z,9.15
2019-03-04T16:27:45.692Z,8.43
2019-03-04T16:30:23.521Z,10.55
2019-03-04T16:32:51.777Z,9.45
2019-03-04T16:35:20.151Z,13.75
2019-03-04T16:37:48.876Z,14.78
2019-03-04T16:40:23.573Z,13.95
2019-03-04T16:42:51.906Z,10.10
2019-03-04T16:45:23.598Z,10.98
2019-03-04T16:47:51.862Z,11.73
2019-03-04T16:50:44.097Z,10.53
2019-03-04T16:53:24.561Z,10.18
2019-03-04T16:55:52.829Z,13.10
2019-03-04T16:58:21.098Z,12.68
2019-03-04T17:00:49.794Z,15.23
2019-03-04T17:03:18.125Z,14.43
2019-03-04T17:05:46.357Z,14.87
2019-03-04T17:08:14.700Z,12.85
2019-03-04T17:10:42.948Z,13.55
2019-03-04T17:13:11.406Z,20.00
2019-03-04T17:15:39.685Z,19.12
2019-03-04T17:18:08.001Z,17.87
2019-03-04T17:20:36.335Z,19.45
2019-03-04T17:23:04.811Z,26.27
2019-03-04T17:25:33.049Z,14.87
2019-03-04T17:28:01.302Z,22.73
2019-03-04T17:30:29.689Z,18.62
2019-03-04T17:32:58.123Z,18.07
2019-03-04T17:35:26.657Z,25.15
2019-03-04T17:37:54.941Z,22.37
2019-03-04T17:40:27.265Z,20.12
2019-03-04T17:42:55.519Z,26.73
2019-03-04T17:45:25.766Z,23.18
2019-03-04T17:47:54.217Z,24.72
2019-03-04T17:50:28.419Z,24.23
2019-03-04T17:52:56.990Z,31.55
2019-03-04T17:55:25.629Z,21.57
2019-03-04T17:57:53.873Z,21.15
2019-03-04T18:00:22.114Z,17.90
2019-03-04T18:02:50.383Z,26.30
2019-03-04T18:05:18.617Z,25.08
2019-03-04T18:07:46.882Z,22.40
2019-03-04T18:10:16.250Z,24.35
2019-03-04T18:12:44.950Z,28.35
2019-03-04T18:15:21.836Z,29.52
2019-03-04T18:17:50.158Z,23.05
2019-03-04T18:20:18.462Z,23.50
2019-03-04T18:22:46.775Z,29.35
2019-03-04T18:25:24.362Z,31.27
2019-03-04T18:27:55.860Z,29.37
2019-03-04T18:30:51.481Z,36.60
2019-03-04T18:33:25.979Z,26.95
2019-03-04T18:36:12.643Z,24.35
2019-03-04T18:38:44.276Z,22.32
2019-03-04T18:41:32.324Z,30.57
2019-03-04T18:44:22.016Z,22.45
2019-03-04T18:47:02.457Z,22.80
2019-03-04T18:49:30.729Z,25.55
2019-03-04T18:51:59.055Z,18.52
2019-03-04T18:54:27.377Z,19.27
2019-03-04T18:56:55.834Z,22.73
2019-03-04T18:59:24.228Z,22.87
2019-03-04T19:01:52.557Z,25.70
2019-03-04T19:04:20.804Z,23.30
2019-03-04T19:06:49.034Z,26.55
2019-03-04T19:09:17.315Z,20.15
2019-03-04T19:11:45.553Z,26.57
2019-03-04T19:14:13.808Z,19.05
2019-03-04T19:16:42.033Z,22.90
2019-03-04T19:19:10.283Z,22.52
2019-03-04T19:21:38.537Z,28.23
2019-03-04T19:24:06.773Z,23.22
2019-03-04T19:26:35.010Z,23.02
2019-03-04T19:29:03.249Z,27.22
2019-03-04T19:31:31.508Z,24.02
2019-03-04T19:33:59.761Z,17.07
2019-03-04T19:36:28.009Z,22.52
2019-03-04T19:38:56.272Z,22.80
2019-03-04T19:41:24.525Z,24.65
2019-03-04T19:43:52.776Z,24.18
2019-03-04T19:46:21.021Z,28.35
2019-03-04T19:48:49.258Z,21.68
2019-03-04T19:51:17.503Z,25.57
2019-03-04T19:53:45.741Z,27.05
2019-03-04T19:56:13.993Z,17.92
2019-03-04T19:58:42.272Z,19.55
2019-03-04T20:01:11.092Z,19.30
2019-03-04T20:03:39.344Z,19.42
2019-03-04T20:06:07.610Z,17.07
2019-03-04T20:08:35.850Z,16.95
2019-03-04T20:11:04.098Z,20.27
2019-03-04T20:13:32.365Z,19.23
2019-03-04T20:16:00.604Z,16.25
2019-03-04T20:18:28.837Z,18.45
2019-03-04T20:20:57.103Z,13.35
2019-03-04T20:23:25.353Z,12.20
2019-03-04T20:25:54.145Z,16.20
2019-03-04T20:28:22.454Z,13.58
2019-03-04T20:30:50.685Z,14.83
2019-03-04T20:33:18.938Z,12.73
2019-03-04T20:35:48.432Z,11.03
2019-03-04T20:38:26.226Z,12.70
2019-03-04T20:40:54.469Z,12.37
2019-03-04T20:43:22.733Z,11.68
2019-03-04T20:45:51.052Z,14.40
2019-03-04T20:48:19.300Z,16.57
2019-03-04T20:50:47.541Z,17.92
2019-03-04T20:53:15.778Z,18.48
2019-03-04T20:55:44.052Z,20.08
2019-03-04T20:58:12.301Z,11.48
2019-03-04T21:00:40.720Z,20.20
2019-03-04T21:03:09.048Z,12.95
2019-03-04T21:05:37.295Z,17.27
2019-03-04T21:08:06.090Z,16.20
2019-03-04T21:10:34.409Z,17.55
2019-03-04T21:13:07.046Z,14.68
2019-03-04T21:15:35.310Z,18.27
2019-03-04T21:18:05.908Z,17.17
2019-03-04T21:20:33.596Z,12.58
2019-03-04T21:23:01.853Z,18.20
2019-03-04T21:26:10.342Z,13.28
2019-03-04T21:29:08.035Z,18.80
2019-03-04T21:31:55.874Z,13.32
2019-03-04T21:34:46.842Z,10.72
2019-03-04T21:37:31.253Z,13.93
2019-03-04T21:40:08.656Z,14.93
2019-03-04T21:43:01.454Z,16.02
2019-03-04T21:45:54.025Z,14.25
2019-03-04T21:48:25.560Z,16.62
2019-03-04T21:51:11.989Z,13.83
2019-03-04T21:54:03.989Z,13.30
2019-03-04T21:56:53.285Z,13.00
2019-03-04T21:59:21.530Z,16.00
2019-03-04T22:02:11.044Z,16.12
2019-03-04T22:04:39.450Z,11.63
2019-03-04T22:07:07.700Z,14.65
2019-03-04T22:09:35.924Z,14.40
2019-03-04T22:12:04.348Z,13.88
2019-03-04T22:14:32.617Z,14.25
2019-03-04T22:17:00.922Z,14.38
2019-03-04T22:19:29.173Z,12.73
2019-03-04T22:21:57.408Z,16.27
2019-03-04T22:24:25.659Z,15.68
2019-03-04T22:26:53.882Z,13.13
2019-03-04T22:29:22.152Z,15.65
2019-03-04T22:31:50.387Z,15.00
2019-03-04T22:34:18.619Z,14.95
2019-03-04T22:36:46.879Z,14.53
2019-03-04T22:39:15.136Z,17.37
2019-03-04T22:41:43.459Z,10.15
2019-03-04T22:44:11.776Z,13.65
2019-03-04T22:46:40.021Z,15.13
2019-03-04T22:49:08.282Z,15.80
2019-03-04T22:51:36.702Z,13.22
2019-03-04T22:54:05.033Z,17.42
2019-03-04T22:56:33.288Z,18.48
2019-03-04T22:59:01.614Z,16.23
2019-03-04T23:01:32.953Z,13.50
2019-03-04T23:04:05.669Z,16.37
2019-03-04T23:06:55.028Z,19.15
2019-03-04T23:09:26.600Z,16.48
2019-03-04T23:12:21.758Z,18.12
2019-03-04T23:14:50.005Z,19.55
2019-03-04T23:17:18.291Z,17.90
2019-03-04T23:19:46.545Z,23.67
2019-03-04T23:22:14.788Z,18.15
2019-03-04T23:24:43.031Z,19.62
2019-03-04T23:27:11.262Z,20.02
2019-03-04T23:29:39.501Z,22.27
2019-03-04T23:32:07.757Z,21.33
2019-03-04T23:34:36.023Z,17.98
2019-03-04T23:37:04.254Z,17.75
2019-03-04T23:39:32.504Z,21.25
2019-03-04T23:42:00.761Z,21.12
2019-03-04T23:44:28.989Z,18.60
2019-03-04T23:46:57.256Z,20.43
2019-03-04T23:49:25.500Z,23.67
2019-03-04T23:51:53.742Z,18.42
2019-03-04T23:54:21.996Z,17.17
2019-03-04T23:56:50.249Z,22.62
2019-03-04T23:59:18.485Z,17.42
